Portland Troutdale Airport
KTTD : rendu visible

Aérodrome :











RETROUVEZ-NOUS SUR...

 
LOGIN :

S'inscrire | Disclaimer

   EN    FR    IT 

 









Légende :    VFR   VFR Marginal   IFR   IFR Intensif   IFR Très Intensif
Visi : 
Plafond : 
>= 8 km
>= 3000ft
5 à 8 km
1000 à 3000 ft
1500m à 5 km
500 à 1000 ft
800 à 1500m
200 à 500 ft
< 800m
< 200 ft
Symboles :   Orages  Brouillard  Fortes neiges  Fortes précipitations  Vent > 20 kt






- Altitude de l'aérodrome : 39 ft


KTTD - Portland Troutdale

DERNIER METAR :
  • 272153Z 08015G21KT 5SM -RA OVC036 08/06 A3009 RMK AO2 SLP189 P0006 T00830056

METARs EXPIRÉS :
  • 272053Z 09015G20KT 10SM -RA BKN050 OVC060 08/05 A3012 RMK AO2 SLP199 P0003 60003 T00830050 58025
  • 271953Z 09013KT 10SM -RA BKN042 BKN049 OVC060 09/05 A3016 RMK AO2 RAB02E33B52 SLP211 P0000 T00890050

TAF KTTD
Valide du 27 à 21h jusqu'au 28 à 18h UTC


272100Z 2721/2818 10012G20KT P6SM -RA OVC045
FM272200 11015G23KT 4SM -RA BR BKN015 OVC035
FM280100 11013KT 6SM -RA SCT015 OVC028
FM280600 19014G22KT P6SM -RA BKN015 OVC030
FM280800 21008KT P6SM -SHRA SCT015 BKN025 OVC040



MET'MAP, la Météo Aéronautique d'un coup d'oeil ! - Copyright ORBIFLY Décembre 2007 - Disclaimer

ORBIFLY MET'MAP TEAM :

Programmation & Développement : Alexandra Zaïnal
Sur une idée originale de : Baudouin d'Aumeries
Assistance à la programmation : Marc-Olivier Méhu
Soutien technique & logistique : Manuel Goepfert

Contact : metmap@orbifly.com




SOURCES & CREDITS :

   NOAA       Earth
Advisory